Time;durP1;ratioP1;P1;durP2;ratioP2;P2;SDS_P1;SDS_P2;PMS_P1;PMS_P2;Temp;Humidity;BMP_temperature;BMP_pressure;BME280_temperature;BME280_humidity;BME280_pressure;Samples;Min_cycle;Max_cycle;Signal;HPM_P1;HPM_P2
2021/12/07 00:00:48;;;;;;;5.00;3.00;;;1.30;95.10;;;;;;5006155;28;20445;-79
2021/12/07 00:03:14;;;;;;;5.13;3.13;;;1.40;95.00;;;;;;5007047;28;20117;-80
2021/12/07 00:05:40;;;;;;;4.97;2.88;;;1.30;95.10;;;;;;5009220;28;20033;-79
2021/12/07 00:08:06;;;;;;;5.20;2.60;;;1.40;95.00;;;;;;5016020;28;20314;-80
2021/12/07 00:10:32;;;;;;;5.07;3.00;;;1.40;95.00;;;;;;5012790;28;20117;-79
2021/12/07 00:12:58;;;;;;;4.65;2.88;;;1.40;95.20;;;;;;5014454;28;20041;-79
2021/12/07 00:15:25;;;;;;;4.53;2.90;;;1.40;95.20;;;;;;5009098;28;20084;-79
2021/12/07 00:17:51;;;;;;;4.40;2.60;;;1.40;95.10;;;;;;5012842;28;20033;-79
2021/12/07 00:20:21;;;;;;;5.00;2.92;;;1.50;95.20;;;;;;5011639;28;20026;-79
2021/12/07 00:22:49;;;;;;;4.70;3.05;;;1.50;95.20;;;;;;5006122;28;20033;-79
2021/12/07 00:25:16;;;;;;;5.13;2.97;;;1.50;95.30;;;;;;5005304;28;20084;-78
2021/12/07 00:27:42;;;;;;;5.18;3.35;;;1.50;95.50;;;;;;5013166;28;20137;-80
2021/12/07 00:30:10;;;;;;;6.65;3.20;;;1.50;95.70;;;;;;5010441;28;20077;-79
2021/12/07 00:32:41;;;;;;;5.57;3.28;;;1.50;96.30;;;;;;5008140;28;20029;-79
2021/12/07 00:37:44;;;;;;;5.75;3.80;;;1.40;97.60;;;;;;5014115;28;20057;-79
2021/12/07 00:40:12;;;;;;;5.32;3.10;;;1.30;98.00;;;;;;5016492;28;20126;-79
2021/12/07 00:42:38;;;;;;;6.90;3.40;;;1.30;98.00;;;;;;5007028;28;20494;-78
2021/12/07 00:45:05;;;;;;;6.15;3.00;;;1.30;98.00;;;;;;5016630;28;20026;-79
2021/12/07 00:47:30;;;;;;;5.32;2.83;;;1.40;98.00;;;;;;5012467;28;20026;-79
2021/12/07 00:49:56;;;;;;;6.15;2.75;;;1.40;98.00;;;;;;5015127;28;20022;-78
2021/12/07 00:52:26;;;;;;;6.80;2.67;;;1.40;98.00;;;;;;5011030;28;20721;-77
2021/12/07 00:54:52;;;;;;;4.05;2.15;;;1.40;98.00;;;;;;5013940;28;20030;-77
2021/12/07 00:57:17;;;;;;;3.72;2.10;;;1.40;98.00;;;;;;5005228;28;20446;-78
2021/12/07 00:59:43;;;;;;;3.83;2.30;;;1.40;98.00;;;;;;5008193;28;20027;-78
2021/12/07 01:02:09;;;;;;;4.13;2.30;;;1.40;98.00;;;;;;5010760;28;20100;-79
2021/12/07 01:04:34;;;;;;;3.88;2.00;;;1.30;98.00;;;;;;5012305;28;20101;-80
2021/12/07 01:07:06;;;;;;;4.95;2.30;;;1.30;98.00;;;;;;5014143;28;20041;-78
2021/12/07 01:25:53;;;;;;;2.38;1.50;;;1.20;98.00;;;;;;5008779;28;20438;-79
2021/12/07 01:31:28;;;;;;;3.60;1.80;;;1.30;98.00;;;;;;4992665;28;20026;-78
2021/12/07 01:36:46;;;;;;;2.95;1.60;;;1.40;98.00;;;;;;5008540;28;20085;-78
2021/12/07 01:45:04;;;;;;;3.05;1.73;;;1.60;98.00;;;;;;5010709;28;20080;-79
2021/12/07 01:47:52;;;;;;;3.25;1.95;;;1.70;98.00;;;;;;5011459;28;20022;-79
2021/12/07 01:59:31;;;;;;;4.50;2.17;;;1.60;98.00;;;;;;5013952;28;20053;-79
2021/12/07 02:00:55;;;;;;;5.03;2.47;;;1.50;98.00;;;;;;5009456;28;20033;-79
2021/12/07 02:03:21;;;;;;;4.20;2.45;;;1.40;98.00;;;;;;5003585;28;20068;-79
2021/12/07 02:05:48;;;;;;;4.43;2.65;;;1.40;98.00;;;;;;5002382;28;20318;-79
2021/12/07 02:08:13;;;;;;;4.15;2.42;;;1.40;98.00;;;;;;4998653;28;20026;-78
2021/12/07 02:10:39;;;;;;;4.78;2.67;;;1.30;98.00;;;;;;4997199;28;20317;-79
2021/12/07 02:13:19;;;;;;;5.25;2.75;;;1.30;98.00;;;;;;5011853;28;20434;-79
2021/12/07 02:15:45;;;;;;;4.63;2.88;;;1.30;98.00;;;;;;5008308;28;20030;-78
2021/12/07 02:18:10;;;;;;;4.05;2.40;;;1.30;98.00;;;;;;5008859;28;20025;-79
2021/12/07 02:20:36;;;;;;;3.92;2.33;;;1.40;98.00;;;;;;5011940;28;20029;-78
2021/12/07 02:23:02;;;;;;;4.65;2.40;;;1.40;98.00;;;;;;5007920;28;20046;-79
2021/12/07 02:25:28;;;;;;;3.42;2.03;;;1.50;98.00;;;;;;5015922;28;20100;-79
2021/12/07 02:27:54;;;;;;;4.25;2.17;;;1.60;98.00;;;;;;5009686;28;20423;-79
2021/12/07 02:30:24;;;;;;;3.80;1.95;;;1.60;98.00;;;;;;5007236;28;20030;-79
2021/12/07 02:32:52;;;;;;;3.28;1.77;;;1.70;98.00;;;;;;5003157;28;20331;-78
2021/12/07 02:35:27;;;;;;;3.63;1.80;;;1.80;98.00;;;;;;5013722;28;20018;-78
2021/12/07 02:37:54;;;;;;;3.22;1.80;;;1.80;98.00;;;;;;5011574;28;20021;-79
2021/12/07 02:40:21;;;;;;;4.30;1.75;;;1.70;98.00;;;;;;5003320;28;20061;-79
2021/12/07 02:42:46;;;;;;;3.55;1.80;;;1.80;98.00;;;;;;5007628;28;20025;-79
2021/12/07 02:45:13;;;;;;;3.10;1.88;;;1.70;98.00;;;;;;5011398;28;20025;-80
2021/12/07 02:47:39;;;;;;;3.75;2.10;;;1.80;98.00;;;;;;4996680;28;20109;-79
2021/12/07 02:50:08;;;;;;;4.25;2.28;;;1.80;98.00;;;;;;5005861;28;20109;-79
2021/12/07 02:52:34;;;;;;;4.55;2.58;;;1.70;98.00;;;;;;5005748;28;20073;-79
2021/12/07 02:55:02;;;;;;;4.22;2.10;;;1.70;98.00;;;;;;4999879;28;20041;-79
2021/12/07 02:57:27;;;;;;;4.72;2.38;;;1.70;98.00;;;;;;5015428;28;20022;-79
2021/12/07 03:00:01;;;;;;;4.47;2.33;;;1.70;98.00;;;;;;5009161;28;20385;-79
2021/12/07 03:02:27;;;;;;;4.30;2.33;;;1.70;98.00;;;;;;5006007;28;20033;-80
2021/12/07 03:05:02;;;;;;;5.60;2.97;;;1.70;98.00;;;;;;5011271;28;20030;-79
2021/12/07 03:07:47;;;;;;;4.50;2.30;;;1.70;98.00;;;;;;5000822;28;20038;-79
2021/12/07 03:26:41;;;;;;;5.43;3.42;;;1.30;98.00;;;;;;5003688;28;20581;-79
2021/12/07 03:29:06;;;;;;;5.25;2.92;;;1.30;98.00;;;;;;5013233;28;20029;-79
2021/12/07 03:31:36;;;;;;;6.38;3.30;;;1.30;98.00;;;;;;5003636;28;20098;-80
2021/12/07 03:34:02;;;;;;;5.78;3.10;;;1.20;98.00;;;;;;5011690;28;20101;-79
2021/12/07 03:36:30;;;;;;;4.90;2.90;;;1.20;98.00;;;;;;5006808;28;20030;-79
2021/12/07 03:38:56;;;;;;;4.75;2.78;;;1.20;98.00;;;;;;5012638;28;20110;-79
2021/12/07 03:41:22;;;;;;;4.78;2.65;;;1.20;98.00;;;;;;5014387;28;20108;-79
2021/12/07 03:43:49;;;;;;;4.88;2.72;;;1.20;98.00;;;;;;5017117;28;20542;-78
2021/12/07 03:46:16;;;;;;;5.28;2.92;;;1.20;98.00;;;;;;5007275;28;20084;-78
2021/12/07 03:48:42;;;;;;;4.32;2.40;;;1.20;98.00;;;;;;5009624;28;20403;-79
2021/12/07 03:51:08;;;;;;;4.82;2.60;;;1.20;98.00;;;;;;5010112;28;20022;-78
2021/12/07 03:53:36;;;;;;;4.28;2.30;;;1.20;98.00;;;;;;5009285;28;20025;-80
2021/12/07 03:56:04;;;;;;;3.63;2.10;;;1.30;98.00;;;;;;5017944;28;20326;-79
2021/12/07 03:58:30;;;;;;;5.47;2.55;;;1.30;98.00;;;;;;5009310;28;20095;-79
2021/12/07 04:00:55;;;;;;;4.07;2.10;;;1.30;98.00;;;;;;5014265;28;20100;-80
2021/12/07 04:03:22;;;;;;;5.43;2.80;;;1.20;98.00;;;;;;5013363;28;20037;-80
2021/12/07 04:05:52;;;;;;;6.07;3.05;;;1.20;98.00;;;;;;5015046;28;20045;-80
2021/12/07 04:08:25;;;;;;;4.43;2.50;;;1.20;98.00;;;;;;5002456;28;20084;-80
2021/12/07 04:10:52;;;;;;;4.55;2.85;;;1.20;98.00;;;;;;5005985;28;20164;-80
2021/12/07 04:13:18;;;;;;;6.22;2.95;;;1.20;98.00;;;;;;5016514;28;20080;-79
2021/12/07 04:15:44;;;;;;;4.60;2.42;;;1.20;98.00;;;;;;5008452;28;20034;-80
2021/12/07 04:18:13;;;;;;;6.32;2.60;;;1.20;98.00;;;;;;5015857;28;20308;-79
2021/12/07 04:20:38;;;;;;;5.20;2.58;;;1.20;98.00;;;;;;5004411;28;20112;-79
2021/12/07 04:23:05;;;;;;;5.50;2.40;;;1.10;98.00;;;;;;5001894;28;20065;-79
2021/12/07 04:25:31;;;;;;;5.22;2.33;;;1.20;98.00;;;;;;5013939;28;20109;-79
2021/12/07 04:27:57;;;;;;;6.35;2.70;;;1.20;98.00;;;;;;5001050;28;20036;-79
2021/12/07 04:30:26;;;;;;;6.68;2.80;;;1.20;98.00;;;;;;5006280;28;20030;-79
2021/12/07 04:32:52;;;;;;;6.15;3.00;;;1.20;98.00;;;;;;4998717;28;20029;-79
2021/12/07 04:35:19;;;;;;;5.70;3.00;;;1.20;98.00;;;;;;5006430;28;20034;-80
2021/12/07 04:37:44;;;;;;;6.95;2.72;;;1.30;98.00;;;;;;5002186;28;20056;-79
2021/12/07 04:40:16;;;;;;;7.63;3.00;;;1.40;98.00;;;;;;5014430;28;20049;-79
2021/12/07 04:42:44;;;;;;;4.95;2.35;;;1.40;98.00;;;;;;5002628;28;20374;-79
2021/12/07 04:45:18;;;;;;;4.30;2.28;;;1.50;98.00;;;;;;5000188;28;20124;-79
2021/12/07 04:58:28;;;;;;;4.93;2.30;;;1.60;98.00;;;;;;5017485;28;20036;-80
2021/12/07 05:00:54;;;;;;;4.30;2.22;;;1.50;98.00;;;;;;5010406;28;20092;-79
2021/12/07 05:03:20;;;;;;;3.97;2.00;;;1.50;98.00;;;;;;5017819;28;20505;-80
2021/12/07 05:05:51;;;;;;;5.78;2.50;;;1.50;98.00;;;;;;5003158;28;20031;-80
2021/12/07 05:08:32;;;;;;;5.07;2.40;;;1.50;98.00;;;;;;5001474;28;20020;-79
2021/12/07 05:13:33;;;;;;;4.07;2.33;;;1.60;98.00;;;;;;5027661;28;20434;-79
2021/12/07 05:40:08;;;;;;;4.53;2.38;;;1.60;98.00;;;;;;5009523;28;20040;-79
2021/12/07 05:42:36;;;;;;;7.70;2.47;;;1.70;98.00;;;;;;5012494;28;20054;-80
2021/12/07 05:45:04;;;;;;;3.63;2.00;;;1.70;98.00;;;;;;5013557;28;20087;-79
2021/12/07 05:47:30;;;;;;;7.53;2.33;;;1.70;98.00;;;;;;5014663;28;20481;-80
2021/12/07 05:49:56;;;;;;;6.35;2.80;;;1.60;98.00;;;;;;5003150;28;20042;-80
2021/12/07 05:52:22;;;;;;;6.57;2.65;;;1.60;98.00;;;;;;5006969;28;20054;-79
2021/12/07 05:54:48;;;;;;;5.82;2.30;;;1.50;98.00;;;;;;5012673;28;20116;-77
2021/12/07 05:57:14;;;;;;;4.13;2.13;;;1.50;98.00;;;;;;5012500;28;20104;-79
2021/12/07 05:59:40;;;;;;;8.93;2.80;;;1.40;98.00;;;;;;5005165;28;20034;-79
2021/12/07 06:02:05;;;;;;;7.65;2.40;;;1.30;98.00;;;;;;5017001;28;20129;-79
2021/12/07 06:04:33;;;;;;;9.85;3.30;;;1.30;98.00;;;;;;5013843;28;20037;-79
2021/12/07 06:06:59;;;;;;;5.85;2.78;;;1.30;98.00;;;;;;5015871;28;20062;-78
2021/12/07 06:09:26;;;;;;;12.57;3.33;;;1.20;98.00;;;;;;5015517;28;20029;-79
2021/12/07 06:11:53;;;;;;;7.93;3.35;;;1.20;98.00;;;;;;5016217;28;20969;-80
2021/12/07 06:14:29;;;;;;;12.27;5.18;;;1.20;98.00;;;;;;5016261;28;20037;-79
2021/12/07 06:16:55;;;;;;;16.90;6.57;;;1.10;98.00;;;;;;5016818;28;20061;-80
2021/12/07 06:19:21;;;;;;;9.73;4.35;;;1.00;98.00;;;;;;5013322;28;20022;-80
2021/12/07 06:21:47;;;;;;;8.98;4.60;;;0.80;97.20;;;;;;4997169;28;20408;-79
2021/12/07 06:24:12;;;;;;;11.00;5.10;;;0.70;96.30;;;;;;5002921;28;20022;-80
2021/12/07 06:26:38;;;;;;;13.60;5.30;;;0.60;95.70;;;;;;5016290;28;20046;-79
2021/12/07 06:29:04;;;;;;;14.57;5.97;;;0.60;95.40;;;;;;5011295;28;20030;-79
2021/12/07 06:31:30;;;;;;;17.83;8.38;;;0.60;95.10;;;;;;5000688;28;20022;-79
2021/12/07 06:33:56;;;;;;;12.68;5.70;;;0.50;94.50;;;;;;4998515;28;20423;-79
2021/12/07 06:36:24;;;;;;;14.55;6.93;;;0.50;94.00;;;;;;5016499;28;20096;-79
2021/12/07 06:38:50;;;;;;;14.82;7.80;;;0.50;93.60;;;;;;5019589;28;20030;-78
2021/12/07 06:41:16;;;;;;;15.05;7.03;;;0.50;93.60;;;;;;5003996;28;20112;-78
2021/12/07 06:43:43;;;;;;;9.07;6.00;;;0.50;93.30;;;;;;4996691;28;20030;-78
2021/12/07 06:46:09;;;;;;;7.55;4.80;;;0.50;92.80;;;;;;5013454;28;20442;-78
2021/12/07 06:48:35;;;;;;;8.65;5.78;;;0.50;92.80;;;;;;5008159;28;20354;-79
2021/12/07 06:51:02;;;;;;;10.68;6.10;;;0.40;92.90;;;;;;5006670;28;20029;-79
2021/12/07 06:53:35;;;;;;;10.52;6.65;;;0.40;92.50;;;;;;5011383;28;20129;-80
2021/12/07 06:56:06;;;;;;;8.93;4.85;;;0.40;92.10;;;;;;5014231;28;20030;-80
2021/12/07 06:58:31;;;;;;;8.65;5.68;;;0.40;92.10;;;;;;5016093;28;20040;-80
2021/12/07 07:01:01;;;;;;;6.78;4.57;;;0.40;91.80;;;;;;5005310;28;20407;-79
2021/12/07 07:03:26;;;;;;;6.45;3.60;;;0.40;91.80;;;;;;5012618;28;20026;-80
2021/12/07 07:05:52;;;;;;;7.72;4.88;;;0.40;91.50;;;;;;5012168;28;20105;-80
2021/12/07 07:08:19;;;;;;;8.13;5.10;;;0.40;91.20;;;;;;5006069;28;20018;-79
2021/12/07 07:10:45;;;;;;;6.88;3.97;;;0.40;91.40;;;;;;4995503;28;20438;-79
2021/12/07 07:13:12;;;;;;;7.38;3.50;;;0.40;90.70;;;;;;5010585;28;20026;-79
2021/12/07 07:15:38;;;;;;;6.53;3.80;;;0.40;91.40;;;;;;5014774;28;20121;-79
2021/12/07 07:18:04;;;;;;;9.20;4.72;;;0.40;91.30;;;;;;4995327;28;20034;-79
2021/12/07 07:20:30;;;;;;;13.25;6.57;;;0.50;91.10;;;;;;4995316;28;20113;-78
2021/12/07 07:22:55;;;;;;;9.93;4.50;;;0.50;91.50;;;;;;5002469;28;20030;-79
2021/12/07 07:25:21;;;;;;;13.45;5.70;;;0.60;91.90;;;;;;4998277;28;20023;-80
2021/12/07 07:27:47;;;;;;;7.25;3.90;;;0.60;92.60;;;;;;5003945;28;20030;-79
2021/12/07 07:30:16;;;;;;;7.57;3.88;;;0.60;93.20;;;;;;4999490;28;20026;-80
2021/12/07 07:32:42;;;;;;;11.02;5.07;;;0.70;94.40;;;;;;5002697;28;20083;-79
2021/12/07 07:35:09;;;;;;;6.35;3.88;;;0.70;95.00;;;;;;5002693;28;20408;-79
2021/12/07 07:37:35;;;;;;;12.57;4.20;;;0.70;95.00;;;;;;4996889;28;20027;-80
2021/12/07 07:40:02;;;;;;;13.65;5.30;;;0.70;95.50;;;;;;5001516;28;20026;-79
2021/12/07 07:42:27;;;;;;;6.30;3.67;;;0.80;95.60;;;;;;4999082;28;20424;-79
2021/12/07 07:44:53;;;;;;;8.20;4.65;;;0.80;95.30;;;;;;5009543;28;20029;-79
2021/12/07 07:47:18;;;;;;;13.85;5.20;;;0.80;95.70;;;;;;5001882;28;20429;-79
2021/12/07 07:49:44;;;;;;;11.15;5.28;;;0.70;96.50;;;;;;5001647;28;20104;-79
2021/12/07 07:52:10;;;;;;;11.25;4.72;;;0.70;96.80;;;;;;5003735;28;20034;-78
2021/12/07 07:54:35;;;;;;;9.55;5.10;;;0.80;97.20;;;;;;5010690;28;20077;-77
2021/12/07 07:57:01;;;;;;;10.20;5.40;;;0.80;97.90;;;;;;5013729;28;20085;-78
2021/12/07 07:59:27;;;;;;;9.52;5.00;;;0.80;97.80;;;;;;5009004;28;20091;-79
2021/12/07 08:01:52;;;;;;;11.93;5.78;;;0.80;98.00;;;;;;5018801;28;20419;-78
2021/12/07 08:04:18;;;;;;;8.23;4.55;;;0.80;98.00;;;;;;5018889;28;20030;-79
2021/12/07 08:06:44;;;;;;;10.60;4.13;;;0.90;98.00;;;;;;5019371;28;20373;-78
2021/12/07 08:09:09;;;;;;;9.55;5.00;;;0.90;98.00;;;;;;5017950;28;20076;-78
2021/12/07 08:11:35;;;;;;;11.50;5.55;;;1.00;98.00;;;;;;5018741;28;20029;-79
2021/12/07 08:14:01;;;;;;;9.07;4.78;;;1.00;98.00;;;;;;5019013;28;20026;-81
2021/12/07 08:16:27;;;;;;;8.88;4.72;;;1.00;98.00;;;;;;5019012;28;20027;-80
2021/12/07 08:18:53;;;;;;;9.63;4.03;;;1.00;98.00;;;;;;4999699;28;20316;-80
2021/12/07 08:21:19;;;;;;;9.38;4.60;;;1.10;98.00;;;;;;4999372;28;20111;-80
2021/12/07 08:23:46;;;;;;;9.18;3.83;;;1.10;98.00;;;;;;5012174;28;20034;-80
2021/12/07 08:26:14;;;;;;;8.63;3.90;;;1.10;98.00;;;;;;5018792;28;20041;-80
2021/12/07 08:28:40;;;;;;;9.82;4.25;;;1.20;98.00;;;;;;5017551;28;20028;-80
2021/12/07 08:31:06;;;;;;;12.13;4.38;;;1.20;98.00;;;;;;5017797;28;20318;-79
2021/12/07 08:33:32;;;;;;;10.65;4.70;;;1.20;98.00;;;;;;5018730;28;20470;-79
2021/12/07 08:35:58;;;;;;;9.05;3.70;;;1.30;98.00;;;;;;5018733;28;20300;-79
2021/12/07 08:38:24;;;;;;;7.30;3.92;;;1.30;98.00;;;;;;5017574;28;20030;-78
2021/12/07 08:40:53;;;;;;;9.18;5.35;;;1.20;98.00;;;;;;5018213;28;20029;-79
2021/12/07 08:43:25;;;;;;;9.30;3.60;;;1.20;98.00;;;;;;5018374;28;20374;-78
2021/12/07 08:45:53;;;;;;;8.27;3.30;;;1.20;98.00;;;;;;5017913;28;20029;-78
2021/12/07 08:48:19;;;;;;;10.13;4.00;;;1.20;98.00;;;;;;5017347;28;20033;-78
2021/12/07 08:50:45;;;;;;;12.48;5.22;;;1.30;98.00;;;;;;5018601;28;20084;-77
2021/12/07 08:53:14;;;;;;;8.50;3.70;;;1.30;98.00;;;;;;5015579;28;20018;-78
2021/12/07 09:01:15;;;;;;;12.52;3.95;;;1.40;98.00;;;;;;4998733;28;20080;-77
2021/12/07 09:03:41;;;;;;;11.52;4.80;;;1.40;98.00;;;;;;4998411;28;20042;-77
2021/12/07 09:06:07;;;;;;;11.65;4.65;;;1.40;98.00;;;;;;5008245;28;20099;-77
2021/12/07 09:08:33;;;;;;;12.00;5.10;;;1.40;98.00;;;;;;5016548;28;20024;-78
2021/12/07 09:10:59;;;;;;;8.70;3.28;;;1.50;98.00;;;;;;5017966;28;20018;-78
2021/12/07 09:13:27;;;;;;;11.77;4.90;;;1.60;98.00;;;;;;5017093;28;20334;-77
2021/12/07 09:15:54;;;;;;;9.20;4.78;;;1.60;98.00;;;;;;5017126;28;20025;-78
2021/12/07 09:18:20;;;;;;;9.35;3.65;;;1.70;98.00;;;;;;5016741;28;20058;-78
2021/12/07 09:20:55;;;;;;;16.45;5.65;;;1.70;98.00;;;;;;5017781;28;20022;-78
2021/12/07 09:23:21;;;;;;;13.00;4.18;;;1.70;98.00;;;;;;5016436;28;20034;-78
2021/12/07 09:25:47;;;;;;;11.88;4.47;;;1.80;98.00;;;;;;5017838;28;20476;-78
2021/12/07 09:28:14;;;;;;;9.48;4.00;;;1.90;98.00;;;;;;4996962;28;20046;-78
2021/12/07 09:30:40;;;;;;;13.02;3.60;;;2.00;98.00;;;;;;4997018;28;20022;-79
2021/12/07 09:33:06;;;;;;;9.38;3.78;;;2.10;98.00;;;;;;4998018;28;20027;-78
2021/12/07 09:35:33;;;;;;;10.30;3.22;;;1.90;98.00;;;;;;4997466;28;20027;-78
2021/12/07 09:37:59;;;;;;;9.20;3.63;;;1.80;98.00;;;;;;4996645;28;20026;-77
2021/12/07 09:40:28;;;;;;;9.80;3.78;;;2.20;98.00;;;;;;4996737;28;20029;-78
2021/12/07 09:42:58;;;;;;;12.82;2.97;;;2.40;98.00;;;;;;4996714;28;20026;-78
2021/12/07 09:45:25;;;;;;;13.30;3.65;;;2.40;98.00;;;;;;4992461;28;20031;-79
2021/12/07 09:47:52;;;;;;;10.95;2.72;;;2.90;98.00;;;;;;4986860;28;20026;-80
2021/12/07 09:50:20;;;;;;;7.97;2.53;;;3.50;98.00;;;;;;4997216;28;20019;-79
2021/12/07 09:52:47;;;;;;;9.23;3.55;;;4.00;97.20;;;;;;4996364;28;20303;-80
2021/12/07 09:55:15;;;;;;;11.35;3.42;;;4.20;96.10;;;;;;4997548;28;20033;-80
2021/12/07 09:57:41;;;;;;;8.25;2.95;;;4.00;96.30;;;;;;4995991;28;20045;-81
2021/12/07 10:00:11;;;;;;;13.27;4.00;;;4.00;95.00;;;;;;4997146;28;20022;-80
2021/12/07 10:02:37;;;;;;;9.43;4.07;;;3.20;96.80;;;;;;4996339;28;20038;-80
2021/12/07 10:05:03;;;;;;;9.43;3.05;;;2.80;98.00;;;;;;4992518;28;20481;-81
2021/12/07 10:07:29;;;;;;;13.88;5.38;;;2.40;98.00;;;;;;4995325;28;20340;-80
2021/12/07 10:09:54;;;;;;;11.75;3.90;;;2.40;98.00;;;;;;4996727;28;20022;-80
2021/12/07 10:12:22;;;;;;;11.95;4.03;;;2.20;98.00;;;;;;4995578;28;20019;-80
2021/12/07 10:14:48;;;;;;;11.90;5.10;;;2.10;98.00;;;;;;4981357;28;20042;-81
2021/12/07 10:17:23;;;;;;;15.07;4.43;;;2.50;98.00;;;;;;4981165;28;20371;-81
2021/12/07 10:19:49;;;;;;;14.65;5.32;;;3.60;98.00;;;;;;4997181;28;20031;-81
2021/12/07 10:22:20;;;;;;;14.52;5.30;;;4.30;96.60;;;;;;4986243;28;20431;-81
2021/12/07 10:24:53;;;;;;;9.15;3.83;;;4.80;95.90;;;;;;4961243;28;20386;-81
2021/12/07 10:27:38;;;;;;;11.52;4.05;;;5.10;94.20;;;;;;4998128;28;20052;-81
2021/12/07 10:30:16;;;;;;;8.25;2.35;;;5.20;93.40;;;;;;5016259;28;20037;-80
2021/12/07 10:32:41;;;;;;;11.27;3.47;;;5.40;92.80;;;;;;5005109;28;20057;-81
2021/12/07 10:35:31;;;;;;;11.73;3.53;;;5.30;91.50;;;;;;4998150;28;20030;-81
2021/12/07 10:38:16;;;;;;;13.63;4.13;;;5.20;92.30;;;;;;4998148;28;20434;-80
2021/12/07 10:40:59;;;;;;;11.13;3.25;;;5.30;92.40;;;;;;4999591;28;20081;-81
2021/12/07 10:43:45;;;;;;;14.82;4.72;;;5.20;92.20;;;;;;5016526;28;20288;-80
2021/12/07 10:46:38;;;;;;;12.30;3.70;;;5.30;92.70;;;;;;5006043;28;20030;-81
2021/12/07 10:49:26;;;;;;;11.52;2.80;;;5.40;92.10;;;;;;4995704;28;20014;-80
2021/12/07 10:52:02;;;;;;;11.85;4.15;;;5.40;91.00;;;;;;5010059;28;20034;-79
2021/12/07 10:54:35;;;;;;;9.27;3.33;;;5.80;90.50;;;;;;5016273;28;20034;-80
2021/12/07 10:57:03;;;;;;;12.02;5.45;;;5.80;89.20;;;;;;5010662;28;20036;-80
2021/12/07 10:59:30;;;;;;;10.20;2.90;;;6.00;89.90;;;;;;5016158;28;20030;-80
2021/12/07 11:01:56;;;;;;;9.52;3.35;;;5.90;88.80;;;;;;5003750;28;20034;-80
2021/12/07 11:04:33;;;;;;;11.75;4.70;;;5.90;89.20;;;;;;5014694;28;20092;-80
2021/12/07 11:07:12;;;;;;;14.40;4.78;;;6.10;88.70;;;;;;4999998;28;20081;-79
2021/12/07 11:09:38;;;;;;;17.02;6.38;;;6.30;87.70;;;;;;4995470;28;20034;-80
2021/12/07 11:12:09;;;;;;;16.17;5.68;;;6.40;87.10;;;;;;5007095;28;20350;-80
2021/12/07 11:14:49;;;;;;;9.48;2.75;;;6.70;86.30;;;;;;4997012;28;20033;-79
2021/12/07 11:17:18;;;;;;;9.98;3.33;;;6.40;84.80;;;;;;4996403;28;20278;-79
2021/12/07 11:19:43;;;;;;;10.65;3.55;;;6.00;86.90;;;;;;5010883;28;20030;-79
2021/12/07 11:22:13;;;;;;;7.65;3.25;;;6.10;86.50;;;;;;5014762;28;20032;-79
2021/12/07 11:24:43;;;;;;;7.53;3.08;;;6.00;85.60;;;;;;5002280;28;20142;-80
2021/12/07 11:30:04;;;;;;;7.65;2.42;;;6.20;84.50;;;;;;5015666;28;20450;-80
2021/12/07 11:32:30;;;;;;;10.05;2.35;;;5.80;85.00;;;;;;5018698;28;20036;-80
2021/12/07 11:35:05;;;;;;;8.68;2.45;;;5.80;86.40;;;;;;5004953;28;20088;-80
2021/12/07 11:37:35;;;;;;;13.43;2.78;;;6.00;85.10;;;;;;5016424;28;20088;-80
2021/12/07 11:40:02;;;;;;;8.05;2.25;;;6.50;83.40;;;;;;5018939;28;20419;-80
2021/12/07 11:42:38;;;;;;;8.13;2.38;;;6.80;82.80;;;;;;5019746;28;20030;-80
2021/12/07 11:45:17;;;;;;;7.43;2.28;;;6.60;81.90;;;;;;5018883;28;20359;-80
2021/12/07 11:47:47;;;;;;;12.90;2.67;;;6.10;82.70;;;;;;5019232;28;20097;-80
2021/12/07 11:50:39;;;;;;;6.93;2.33;;;5.30;85.20;;;;;;5004025;28;20038;-80
2021/12/07 11:53:06;;;;;;;8.82;1.88;;;5.00;86.80;;;;;;4998535;28;20022;-80
2021/12/07 11:55:35;;;;;;;9.23;2.50;;;4.80;87.20;;;;;;5017030;28;20080;-80
2021/12/07 11:58:02;;;;;;;9.13;1.73;;;5.50;87.70;;;;;;5018125;28;20057;-80
2021/12/07 12:00:35;;;;;;;6.50;1.98;;;6.30;83.90;;;;;;5018732;28;20029;-79
2021/12/07 12:03:10;;;;;;;10.45;3.10;;;6.70;82.60;;;;;;5004332;28;20026;-80
2021/12/07 12:05:39;;;;;;;4.80;1.77;;;6.20;81.20;;;;;;5000325;28;20045;-80
2021/12/07 12:08:08;;;;;;;7.65;2.08;;;5.60;83.30;;;;;;5013886;28;20038;-81
2021/12/07 12:10:44;;;;;;;7.10;2.10;;;5.30;83.30;;;;;;5017242;28;20021;-82
2021/12/07 12:13:22;;;;;;;5.32;1.65;;;5.10;84.10;;;;;;5013460;28;20416;-82
2021/12/07 12:16:02;;;;;;;10.50;2.35;;;4.80;84.70;;;;;;5018650;28;20113;-81
2021/12/07 12:19:03;;;;;;;8.73;2.50;;;4.50;86.60;;;;;;5017203;28;20022;-82
2021/12/07 12:21:44;;;;;;;6.35;2.33;;;4.50;87.10;;;;;;5017899;28;20022;-81
2021/12/07 12:24:29;;;;;;;7.10;2.53;;;4.40;85.40;;;;;;5006510;28;20045;-82
2021/12/07 12:27:16;;;;;;;7.72;2.22;;;4.50;86.20;;;;;;5008748;28;20038;-82
2021/12/07 12:29:44;;;;;;;7.15;2.85;;;4.50;85.40;;;;;;5017226;28;20033;-80
2021/12/07 12:32:10;;;;;;;6.72;2.20;;;4.60;86.10;;;;;;5008533;28;20074;-80
2021/12/07 12:34:48;;;;;;;6.70;1.90;;;4.60;85.90;;;;;;4999272;28;20034;-80
2021/12/07 12:37:17;;;;;;;7.90;2.10;;;4.80;85.90;;;;;;4998908;28;20800;-81
2021/12/07 12:40:07;;;;;;;8.10;2.53;;;4.90;85.50;;;;;;4998572;28;20104;-82
2021/12/07 12:42:37;;;;;;;4.75;1.60;;;5.10;84.10;;;;;;5014629;28;20458;-82
2021/12/07 12:45:19;;;;;;;4.60;1.70;;;5.00;83.60;;;;;;5005844;28;20039;-83
2021/12/07 12:47:45;;;;;;;5.50;1.85;;;5.10;82.90;;;;;;5004507;28;20472;-84
2021/12/07 12:50:43;;;;;;;6.40;1.92;;;4.80;82.60;;;;;;5018396;28;20022;-84
2021/12/07 12:53:11;;;;;;;7.53;1.88;;;4.50;82.50;;;;;;4974363;28;20041;-85
2021/12/07 12:56:00;;;;;;;6.95;1.77;;;4.80;84.10;;;;;;4999757;28;20026;-85
2021/12/07 12:58:30;;;;;;;5.65;1.48;;;5.20;83.40;;;;;;5014567;28;20022;-87
2021/12/07 13:01:16;;;;;;;5.55;1.80;;;5.10;83.30;;;;;;5017245;28;20304;-87
2021/12/07 13:04:02;;;;;;;5.00;1.30;;;5.00;80.90;;;;;;5017097;28;20037;-86
2021/12/07 13:06:36;;;;;;;5.35;1.65;;;4.90;80.50;;;;;;5011375;28;20082;-85
2021/12/07 13:09:09;;;;;;;8.60;2.03;;;4.80;80.30;;;;;;4997188;28;20019;-85
2021/12/07 13:11:39;;;;;;;8.40;3.13;;;4.40;81.60;;;;;;5003221;28;20324;-83
2021/12/07 13:14:13;;;;;;;7.22;2.60;;;4.20;82.30;;;;;;5017068;28;20117;-82
2021/12/07 13:16:52;;;;;;;9.50;2.97;;;4.50;82.00;;;;;;5010423;28;20036;-81
2021/12/07 13:19:19;;;;;;;10.57;2.30;;;5.00;81.00;;;;;;5014547;28;20053;-80
2021/12/07 13:21:46;;;;;;;9.93;2.65;;;5.20;80.50;;;;;;5017285;28;20025;-81
2021/12/07 13:24:18;;;;;;;8.07;2.55;;;5.30;80.00;;;;;;5009990;28;20026;-81
2021/12/07 13:26:51;;;;;;;6.45;1.95;;;5.50;80.10;;;;;;4996940;28;20600;-80
2021/12/07 13:29:20;;;;;;;5.75;1.60;;;5.40;80.00;;;;;;4999426;28;20014;-80
2021/12/07 13:31:51;;;;;;;6.07;1.55;;;4.90;79.30;;;;;;5006996;28;20327;-80
2021/12/07 13:34:24;;;;;;;5.68;1.75;;;4.70;80.20;;;;;;4999976;28;20113;-80
2021/12/07 13:37:05;;;;;;;4.95;1.60;;;4.70;80.90;;;;;;5001949;28;20323;-80
2021/12/07 13:39:40;;;;;;;7.80;2.60;;;5.00;80.70;;;;;;5003923;28;20390;-80
2021/12/07 13:42:22;;;;;;;8.63;2.22;;;5.20;80.90;;;;;;5014722;28;20121;-80
2021/12/07 13:44:51;;;;;;;6.57;1.98;;;5.20;78.90;;;;;;5009565;28;20060;-80
2021/12/07 13:47:20;;;;;;;5.75;1.60;;;5.00;79.60;;;;;;5017141;28;20054;-81
2021/12/07 13:49:51;;;;;;;5.95;2.15;;;4.90;80.30;;;;;;5015349;28;20022;-81
2021/12/07 13:52:21;;;;;;;8.00;1.73;;;4.90;80.60;;;;;;5014524;28;20030;-80
2021/12/07 13:54:50;;;;;;;4.72;1.40;;;5.00;81.00;;;;;;4999638;28;20327;-81
2021/12/07 13:57:19;;;;;;;5.88;1.95;;;4.90;80.30;;;;;;4999097;28;20034;-81
2021/12/07 13:59:57;;;;;;;5.75;1.60;;;4.90;81.90;;;;;;5016957;28;20029;-81
2021/12/07 14:02:24;;;;;;;7.80;2.28;;;4.90;81.30;;;;;;5011213;28;20070;-81
2021/12/07 14:04:50;;;;;;;5.22;1.30;;;4.90;82.70;;;;;;4997259;28;20368;-81
2021/12/07 14:07:17;;;;;;;4.63;1.65;;;4.90;82.50;;;;;;4999116;28;20162;-81
2021/12/07 14:09:43;;;;;;;6.50;1.67;;;4.90;85.40;;;;;;5016542;28;20304;-81
2021/12/07 14:12:09;;;;;;;5.72;1.73;;;4.90;85.80;;;;;;5015108;28;20108;-82
2021/12/07 14:14:34;;;;;;;5.00;1.50;;;4.90;85.60;;;;;;5014989;28;20437;-81
2021/12/07 14:17:00;;;;;;;5.32;1.55;;;5.00;83.60;;;;;;5016765;28;20033;-81
2021/12/07 14:19:26;;;;;;;3.90;1.60;;;4.80;83.00;;;;;;5007449;28;20041;-81
2021/12/07 14:21:53;;;;;;;5.32;1.42;;;4.60;85.10;;;;;;4996760;28;20367;-80
2021/12/07 14:24:22;;;;;;;6.28;1.40;;;4.60;85.60;;;;;;5002871;28;20033;-81
2021/12/07 14:26:49;;;;;;;7.22;2.10;;;4.40;86.90;;;;;;5016454;28;20050;-80
2021/12/07 14:29:21;;;;;;;6.47;1.60;;;4.40;85.90;;;;;;5014559;28;20018;-81
2021/12/07 14:31:50;;;;;;;6.47;2.00;;;4.10;87.70;;;;;;5014941;28;20022;-81
2021/12/07 14:34:23;;;;;;;3.83;1.50;;;3.90;89.50;;;;;;4999289;28;20031;-81
2021/12/07 14:36:54;;;;;;;4.70;1.23;;;3.70;90.20;;;;;;4996080;28;20323;-80
2021/12/07 14:39:31;;;;;;;6.25;1.85;;;3.60;91.50;;;;;;4996681;28;20033;-81
2021/12/07 14:42:03;;;;;;;9.05;3.35;;;3.30;91.70;;;;;;5016457;28;20068;-80
2021/12/07 14:44:33;;;;;;;4.90;1.85;;;3.30;89.90;;;;;;5006499;28;20351;-80
2021/12/07 14:47:04;;;;;;;8.27;2.03;;;3.10;90.90;;;;;;4996899;28;20026;-81